createdAt,value
2022-11-17T00:01:38.331Z,4.53
2022-11-17T00:04:08.742Z,5.13
2022-11-17T00:06:39.012Z,3.22
2022-11-17T00:09:17.785Z,4.15
2022-11-17T00:12:07.119Z,3.58
2022-11-17T00:14:40.742Z,2.47
2022-11-17T00:17:13.702Z,2.53
2022-11-17T00:20:02.645Z,2.58
2022-11-17T00:22:33.221Z,2.25
2022-11-17T00:25:03.820Z,1.95
2022-11-17T00:27:34.227Z,2.13
2022-11-17T00:30:05.557Z,2.40
2022-11-17T00:32:54.300Z,2.28
2022-11-17T00:35:24.588Z,2.35
2022-11-17T00:38:13.415Z,1.67
2022-11-17T00:40:43.714Z,1.60
2022-11-17T00:43:13.997Z,2.60
2022-11-17T00:45:44.295Z,1.70
2022-11-17T00:48:14.974Z,3.17
2022-11-17T00:50:45.270Z,1.70
2022-11-17T00:53:15.545Z,1.90
2022-11-17T00:55:45.852Z,3.08
2022-11-17T00:58:16.225Z,2.80
2022-11-17T01:00:49.223Z,3.03
2022-11-17T01:03:19.508Z,3.05
2022-11-17T01:05:49.856Z,3.05
2022-11-17T01:08:20.238Z,3.30
2022-11-17T01:10:50.596Z,1.95
2022-11-17T01:13:20.894Z,2.10
2022-11-17T01:15:51.193Z,2.38
2022-11-17T01:18:21.462Z,2.38
2022-11-17T01:20:51.728Z,2.08
2022-11-17T01:23:22.328Z,2.88
2022-11-17T01:25:52.581Z,4.53
2022-11-17T01:28:22.877Z,4.03
2022-11-17T01:31:00.215Z,2.20
2022-11-17T01:33:30.701Z,3.25
2022-11-17T01:36:05.185Z,3.47
2022-11-17T01:38:35.472Z,2.75
2022-11-17T01:41:10.184Z,3.60
2022-11-17T01:43:43.690Z,2.60
2022-11-17T01:46:41.499Z,2.33
2022-11-17T01:49:14.058Z,3.72
2022-11-17T01:51:48.772Z,2.17
2022-11-17T01:54:23.522Z,2.58
2022-11-17T01:56:58.429Z,3.22
2022-11-17T01:59:43.848Z,3.25
2022-11-17T02:02:14.047Z,2.58
2022-11-17T02:04:49.929Z,2.83
2022-11-17T02:07:32.071Z,2.15
2022-11-17T02:10:04.034Z,2.08
2022-11-17T02:12:36.477Z,1.85
2022-11-17T02:15:07.040Z,2.42
2022-11-17T02:17:39.648Z,1.55
2022-11-17T02:20:12.243Z,1.83
2022-11-17T02:23:10.298Z,3.25
2022-11-17T02:25:59.212Z,2.33
2022-11-17T02:28:34.879Z,1.95
2022-11-17T02:31:07.889Z,2.45
2022-11-17T02:33:56.268Z,2.20
2022-11-17T02:37:03.910Z,2.25
2022-11-17T02:39:58.727Z,3.58
2022-11-17T02:42:58.917Z,2.53
2022-11-17T02:45:44.667Z,1.90
2022-11-17T02:48:37.766Z,3.00
2022-11-17T02:51:14.763Z,1.98
2022-11-17T02:53:45.141Z,2.90
2022-11-17T02:56:15.252Z,2.13
2022-11-17T02:58:48.818Z,3.72
2022-11-17T03:01:36.956Z,2.03
2022-11-17T03:04:07.119Z,3.03
2022-11-17T03:07:00.682Z,2.08
2022-11-17T03:09:45.961Z,1.90
2022-11-17T03:12:42.209Z,3.40
2022-11-17T03:15:51.586Z,2.05
2022-11-17T03:18:30.675Z,1.75
2022-11-17T03:21:20.116Z,2.65
2022-11-17T03:23:55.135Z,2.38
2022-11-17T03:26:32.121Z,1.75
2022-11-17T03:29:06.534Z,2.75
2022-11-17T03:31:38.784Z,2.13
2022-11-17T03:34:13.184Z,2.45
2022-11-17T03:36:48.612Z,2.63
2022-11-17T03:39:31.636Z,2.47
2022-11-17T03:42:28.456Z,2.53
2022-11-17T03:45:07.352Z,2.55
2022-11-17T03:47:38.151Z,1.63
2022-11-17T03:50:16.227Z,2.00
2022-11-17T03:52:46.689Z,2.88
2022-11-17T03:55:17.125Z,2.03
2022-11-17T03:57:54.708Z,1.70
2022-11-17T04:00:25.433Z,2.35
2022-11-17T04:02:58.890Z,2.83
2022-11-17T04:05:29.042Z,1.85
2022-11-17T04:07:59.180Z,2.38
2022-11-17T04:10:29.338Z,3.70
2022-11-17T04:13:17.903Z,2.50
2022-11-17T04:15:56.877Z,1.80
2022-11-17T04:18:27.376Z,2.10
2022-11-17T04:20:57.969Z,2.90
2022-11-17T04:23:28.368Z,1.75
2022-11-17T04:26:17.029Z,2.25
2022-11-17T04:28:50.286Z,2.47
2022-11-17T04:31:23.363Z,1.80
2022-11-17T04:34:04.756Z,1.92
2022-11-17T04:36:46.232Z,2.08
2022-11-17T04:39:16.502Z,2.13
2022-11-17T04:41:57.470Z,1.65
2022-11-17T04:44:30.096Z,1.65
2022-11-17T04:47:03.292Z,2.08
2022-11-17T04:49:33.526Z,1.83
2022-11-17T04:52:03.841Z,1.73
2022-11-17T04:54:34.009Z,1.33
2022-11-17T04:57:04.333Z,1.92
2022-11-17T04:59:34.515Z,1.75
2022-11-17T05:02:06.295Z,2.78
2022-11-17T05:04:55.192Z,2.70
2022-11-17T05:07:25.536Z,1.48
2022-11-17T05:09:55.712Z,1.85
2022-11-17T05:12:44.469Z,4.03
2022-11-17T05:15:34.510Z,2.72
2022-11-17T05:18:04.623Z,1.65
2022-11-17T05:20:34.838Z,2.00
2022-11-17T05:23:25.241Z,1.73
2022-11-17T05:25:55.362Z,2.67
2022-11-17T05:28:25.496Z,1.92
2022-11-17T05:30:55.598Z,2.28
2022-11-17T05:33:25.845Z,3.00
2022-11-17T05:35:55.970Z,2.30
2022-11-17T05:38:26.081Z,3.60
2022-11-17T05:40:56.243Z,2.90
2022-11-17T05:43:26.442Z,2.00
2022-11-17T05:45:56.529Z,1.70
2022-11-17T05:48:27.081Z,2.08
2022-11-17T05:50:57.523Z,2.13
2022-11-17T05:53:29.338Z,2.33
2022-11-17T05:56:36.929Z,2.88
2022-11-17T05:59:10.025Z,2.13
2022-11-17T06:01:46.944Z,2.20
2022-11-17T06:04:19.625Z,2.58
2022-11-17T06:06:51.036Z,3.72
2022-11-17T06:09:21.156Z,2.90
2022-11-17T06:11:51.312Z,2.85
2022-11-17T06:14:21.372Z,4.90
2022-11-17T06:16:56.479Z,3.53
2022-11-17T06:19:33.431Z,3.95
2022-11-17T06:22:12.266Z,4.85
2022-11-17T06:24:45.440Z,4.88
2022-11-17T06:27:17.319Z,2.58
2022-11-17T06:29:48.176Z,3.25
2022-11-17T06:32:19.955Z,3.30
2022-11-17T06:34:56.185Z,4.32
2022-11-17T06:37:26.678Z,5.03
2022-11-17T06:39:57.247Z,6.45
2022-11-17T06:42:45.766Z,6.82
2022-11-17T06:45:16.001Z,4.00
2022-11-17T06:47:46.164Z,3.67
2022-11-17T06:50:16.771Z,4.55
2022-11-17T06:52:46.887Z,3.05
2022-11-17T06:55:17.263Z,4.20
2022-11-17T06:57:52.967Z,3.85
2022-11-17T07:00:23.647Z,2.78
2022-11-17T07:02:58.750Z,3.42
2022-11-17T07:05:28.958Z,4.80
2022-11-17T07:08:00.296Z,2.45
2022-11-17T07:10:32.149Z,3.60
2022-11-17T07:13:03.542Z,3.72
2022-11-17T07:15:33.753Z,2.85
2022-11-17T07:18:04.127Z,2.97
2022-11-17T07:20:34.294Z,3.53
2022-11-17T07:23:04.466Z,3.33
2022-11-17T07:25:34.611Z,4.07
2022-11-17T07:28:04.951Z,3.03
2022-11-17T07:30:36.312Z,2.55
2022-11-17T07:33:06.502Z,4.88
2022-11-17T07:35:37.385Z,3.92
2022-11-17T07:38:07.702Z,5.18
2022-11-17T07:40:38.090Z,4.05
2022-11-17T07:43:08.229Z,4.45
2022-11-17T07:45:38.333Z,4.28
2022-11-17T07:48:08.536Z,5.25
2022-11-17T07:50:41.120Z,4.20
2022-11-17T07:53:13.681Z,4.93
2022-11-17T07:55:43.851Z,4.57
2022-11-17T07:58:13.911Z,4.85
2022-11-17T08:00:44.176Z,4.90
2022-11-17T08:03:14.432Z,3.22
2022-11-17T08:05:44.615Z,4.72
2022-11-17T08:08:15.897Z,3.47
2022-11-17T08:10:46.055Z,3.92
2022-11-17T08:13:16.297Z,5.13
2022-11-17T08:15:46.395Z,4.90
2022-11-17T08:18:17.043Z,3.95
2022-11-17T08:20:47.134Z,3.22
2022-11-17T08:23:17.709Z,7.25
2022-11-17T08:25:47.893Z,3.80
2022-11-17T08:28:18.081Z,3.92
2022-11-17T08:30:48.336Z,4.13
2022-11-17T08:33:18.683Z,3.97
2022-11-17T08:35:48.776Z,3.33
2022-11-17T08:38:19.168Z,2.90
2022-11-17T08:40:49.276Z,3.08
2022-11-17T08:43:19.370Z,3.97
2022-11-17T08:45:49.599Z,4.68
2022-11-17T08:48:20.070Z,3.40
2022-11-17T08:50:50.399Z,4.43
2022-11-17T08:53:22.296Z,4.47
2022-11-17T08:55:52.740Z,3.33
2022-11-17T08:58:23.061Z,5.45
2022-11-17T09:00:53.395Z,5.45
2022-11-17T09:03:23.903Z,3.28
2022-11-17T09:05:54.072Z,11.63
2022-11-17T09:11:14.768Z,6.47
2022-11-17T09:13:47.156Z,3.70
2022-11-17T09:16:17.532Z,4.10
2022-11-17T09:18:47.759Z,3.92
2022-11-17T09:21:17.943Z,4.25
2022-11-17T09:23:49.527Z,3.90
2022-11-17T09:26:19.662Z,9.07
2022-11-17T09:28:49.921Z,4.35
2022-11-17T09:31:22.070Z,5.78
2022-11-17T09:33:53.005Z,3.60
2022-11-17T09:36:23.199Z,5.70
2022-11-17T09:38:53.458Z,5.55
2022-11-17T09:41:46.835Z,5.53
2022-11-17T09:44:29.022Z,4.30
2022-11-17T09:47:26.374Z,5.10
2022-11-17T09:50:05.457Z,7.38
2022-11-17T09:53:09.630Z,4.70
2022-11-17T09:55:49.880Z,6.53
2022-11-17T09:58:25.749Z,5.78
2022-11-17T10:00:56.521Z,4.28
2022-11-17T10:03:43.599Z,3.67
2022-11-17T10:06:22.013Z,4.95
2022-11-17T10:09:24.051Z,10.48
2022-11-17T10:12:07.814Z,5.28
2022-11-17T10:14:40.655Z,10.13
2022-11-17T10:17:12.993Z,13.15
2022-11-17T10:19:45.345Z,6.07
2022-11-17T10:22:33.842Z,5.55
2022-11-17T10:25:04.263Z,4.47
2022-11-17T10:27:34.680Z,4.10
2022-11-17T10:30:07.278Z,3.17
2022-11-17T10:32:48.344Z,4.07
2022-11-17T10:35:25.787Z,4.65
2022-11-17T10:38:20.371Z,4.63
2022-11-17T10:40:52.412Z,4.78
2022-11-17T10:43:28.885Z,29.55
2022-11-17T10:46:06.617Z,12.68
2022-11-17T10:48:38.873Z,7.90
2022-11-17T10:51:19.618Z,4.55
2022-11-17T10:54:17.407Z,3.45
2022-11-17T10:56:54.577Z,7.95
2022-11-17T10:59:32.290Z,3.50
2022-11-17T11:02:29.684Z,4.97
2022-11-17T11:05:11.942Z,4.68
2022-11-17T11:07:43.139Z,7.13
2022-11-17T11:10:20.197Z,13.50
2022-11-17T11:15:39.418Z,6.93
2022-11-17T11:18:18.773Z,7.43
2022-11-17T11:20:54.819Z,3.70
2022-11-17T11:23:30.745Z,6.13
2022-11-17T11:26:12.666Z,4.43
2022-11-17T11:29:11.167Z,4.15
2022-11-17T11:31:55.919Z,4.70
2022-11-17T11:35:04.025Z,3.38
2022-11-17T11:37:47.287Z,6.30
2022-11-17T11:40:35.286Z,4.35
2022-11-17T11:43:26.961Z,9.32
2022-11-17T11:46:21.284Z,4.55
2022-11-17T11:48:57.217Z,4.07
2022-11-17T11:51:30.935Z,7.05
2022-11-17T11:54:15.281Z,4.53
2022-11-17T11:56:48.477Z,5.40
2022-11-17T11:59:52.095Z,4.78
2022-11-17T12:02:29.389Z,5.30
2022-11-17T12:05:13.525Z,3.80
2022-11-17T12:07:58.019Z,6.35
2022-11-17T12:10:49.133Z,4.10
2022-11-17T12:13:22.836Z,4.65
2022-11-17T12:16:19.512Z,3.38
2022-11-17T12:21:25.308Z,9.20
2022-11-17T12:24:12.478Z,2.53
2022-11-17T12:26:43.103Z,3.33
2022-11-17T12:29:22.306Z,3.90
2022-11-17T12:31:58.431Z,6.35
2022-11-17T12:34:35.979Z,6.55
2022-11-17T12:37:17.256Z,9.80
2022-11-17T12:39:58.132Z,5.75
2022-11-17T12:42:30.644Z,9.02
2022-11-17T12:45:08.940Z,11.93
2022-11-17T12:47:59.539Z,9.80
2022-11-17T12:51:04.808Z,7.60
2022-11-17T12:53:39.456Z,5.50
2022-11-17T12:56:44.919Z,4.25
2022-11-17T12:59:46.690Z,5.03
2022-11-17T13:02:44.921Z,6.47
2022-11-17T13:05:23.677Z,3.40
2022-11-17T13:08:29.116Z,3.75
2022-11-17T13:11:12.302Z,3.00
2022-11-17T13:13:45.789Z,4.43
2022-11-17T13:16:20.207Z,4.40
2022-11-17T13:18:50.461Z,8.82
2022-11-17T13:21:31.389Z,3.60
2022-11-17T13:24:01.736Z,5.05
2022-11-17T13:26:39.621Z,5.93
2022-11-17T13:29:19.691Z,4.70
2022-11-17T13:31:49.928Z,5.07
2022-11-17T13:34:23.822Z,8.13
2022-11-17T13:36:59.893Z,3.67
2022-11-17T13:39:30.170Z,5.37
2022-11-17T13:42:02.621Z,4.47
2022-11-17T13:44:33.560Z,10.45
2022-11-17T13:47:49.605Z,7.32
2022-11-17T13:50:31.333Z,4.28
2022-11-17T13:53:01.470Z,5.30
2022-11-17T13:55:32.503Z,7.15
2022-11-17T13:58:26.501Z,6.78
2022-11-17T14:00:58.959Z,5.78
2022-11-17T14:03:35.206Z,5.63
2022-11-17T14:06:08.510Z,9.13
2022-11-17T14:08:41.163Z,4.25
2022-11-17T14:11:11.311Z,5.47
2022-11-17T14:13:45.685Z,4.57
2022-11-17T14:16:26.033Z,3.85
2022-11-17T14:19:05.421Z,4.57
2022-11-17T14:21:35.674Z,6.65
2022-11-17T14:24:11.571Z,9.40
2022-11-17T14:26:44.997Z,4.68
2022-11-17T14:29:15.212Z,6.60
2022-11-17T14:31:45.379Z,15.43
2022-11-17T14:34:15.907Z,16.73
2022-11-17T14:36:50.003Z,11.23
2022-11-17T14:39:20.397Z,10.85
2022-11-17T14:41:51.393Z,10.20
2022-11-17T14:44:22.087Z,11.25
2022-11-17T14:46:52.173Z,11.05
2022-11-17T14:49:22.387Z,8.55
2022-11-17T14:51:55.554Z,9.65
2022-11-17T14:54:26.122Z,11.07
2022-11-17T14:56:56.265Z,15.05
2022-11-17T14:59:26.346Z,13.57
2022-11-17T15:01:56.507Z,12.73
2022-11-17T15:04:49.428Z,14.70
2022-11-17T15:07:17.451Z,10.93
2022-11-17T15:09:47.633Z,31.40
2022-11-17T15:12:17.823Z,20.83
2022-11-17T15:14:48.168Z,19.02
2022-11-17T15:17:18.399Z,17.15
2022-11-17T15:19:48.528Z,12.57
2022-11-17T15:22:19.040Z,13.48
2022-11-17T15:24:49.183Z,19.20
2022-11-17T15:27:19.314Z,19.10
2022-11-17T15:29:50.098Z,18.70
2022-11-17T15:32:20.328Z,16.95
2022-11-17T15:34:50.528Z,14.55
2022-11-17T15:37:20.706Z,14.88
2022-11-17T15:39:50.769Z,14.02
2022-11-17T15:42:20.943Z,18.90
2022-11-17T15:44:51.035Z,29.80
2022-11-17T15:47:21.334Z,37.85
2022-11-17T15:49:58.624Z,44.83
2022-11-17T15:52:48.710Z,33.00
2022-11-17T15:55:18.930Z,69.45
2022-11-17T15:57:49.216Z,35.05
2022-11-17T16:00:20.346Z,19.58
2022-11-17T16:02:53.241Z,14.55
2022-11-17T16:05:27.483Z,11.27
2022-11-17T16:07:58.291Z,13.30
2022-11-17T16:10:28.442Z,12.68
2022-11-17T16:12:58.606Z,19.67
2022-11-17T16:15:29.729Z,10.95
2022-11-17T16:17:59.876Z,10.52
2022-11-17T16:20:30.083Z,7.78
2022-11-17T16:23:00.267Z,11.65
2022-11-17T16:25:30.376Z,11.20
2022-11-17T16:28:00.480Z,17.33
2022-11-17T16:30:35.302Z,20.17
2022-11-17T16:33:14.069Z,19.17
2022-11-17T16:35:46.082Z,26.10
2022-11-17T16:38:17.294Z,22.10
2022-11-17T16:40:47.438Z,15.00
2022-11-17T16:43:17.945Z,18.02
2022-11-17T16:45:48.289Z,12.48
2022-11-17T16:48:19.903Z,15.68
2022-11-17T16:50:50.245Z,21.05
2022-11-17T16:53:20.608Z,17.25
2022-11-17T16:55:50.707Z,18.52
2022-11-17T16:58:20.886Z,19.38
2022-11-17T17:00:50.931Z,23.83
2022-11-17T17:03:22.219Z,19.30
2022-11-17T17:05:52.415Z,20.40
2022-11-17T17:08:22.553Z,17.52
2022-11-17T17:10:52.682Z,11.10
2022-11-17T17:13:22.822Z,15.10
2022-11-17T17:15:52.958Z,12.25
2022-11-17T17:18:23.739Z,22.58
2022-11-17T17:20:53.897Z,16.90
2022-11-17T17:23:25.273Z,18.30
2022-11-17T17:26:08.155Z,13.95
2022-11-17T17:28:40.726Z,22.60
2022-11-17T17:31:15.374Z,17.42
2022-11-17T17:33:50.351Z,17.65
2022-11-17T17:36:23.588Z,20.55
2022-11-17T17:38:58.176Z,15.48
2022-11-17T17:41:30.893Z,17.02
2022-11-17T17:44:06.553Z,9.68
2022-11-17T17:46:39.501Z,10.43
2022-11-17T17:49:10.451Z,8.77
2022-11-17T17:51:44.332Z,10.98
2022-11-17T17:54:17.362Z,10.90
2022-11-17T17:56:48.770Z,14.00
2022-11-17T17:59:19.468Z,18.40
2022-11-17T18:01:50.058Z,17.42
2022-11-17T18:04:20.258Z,21.00
2022-11-17T18:06:51.312Z,27.13
2022-11-17T18:09:21.661Z,22.55
2022-11-17T18:11:52.026Z,18.98
2022-11-17T18:14:24.981Z,19.75
2022-11-17T18:16:55.346Z,36.10
2022-11-17T18:19:32.529Z,28.23
2022-11-17T18:22:04.122Z,21.70
2022-11-17T18:24:34.444Z,24.33
2022-11-17T18:27:04.925Z,35.03
2022-11-17T18:29:35.638Z,47.13
2022-11-17T18:32:05.812Z,34.05
2022-11-17T18:34:36.105Z,21.95
2022-11-17T18:37:08.946Z,21.75
2022-11-17T18:39:39.023Z,29.45
2022-11-17T18:42:09.196Z,20.63
2022-11-17T18:44:39.295Z,23.10
2022-11-17T18:47:09.500Z,19.50
2022-11-17T18:49:39.909Z,24.08
2022-11-17T18:52:10.349Z,18.70
2022-11-17T18:54:40.574Z,11.55
2022-11-17T18:57:10.661Z,15.15
2022-11-17T18:59:40.829Z,13.15
2022-11-17T19:02:10.905Z,15.00
2022-11-17T19:04:41.060Z,13.63
2022-11-17T19:07:11.239Z,13.20
2022-11-17T19:09:41.403Z,33.63
2022-11-17T19:12:11.507Z,12.45
2022-11-17T19:14:41.657Z,8.75
2022-11-17T19:17:11.788Z,8.20
2022-11-17T19:19:41.874Z,12.02
2022-11-17T19:22:12.011Z,10.00
2022-11-17T19:24:43.925Z,8.27
2022-11-17T19:27:14.076Z,6.43
2022-11-17T19:29:44.297Z,7.82
2022-11-17T19:32:14.708Z,5.78
2022-11-17T19:34:44.939Z,4.68
2022-11-17T19:37:15.037Z,5.63
2022-11-17T19:39:45.669Z,14.98
2022-11-17T19:42:15.811Z,17.90
2022-11-17T19:44:45.980Z,19.92
2022-11-17T19:47:16.125Z,9.90
2022-11-17T19:49:46.293Z,9.05
2022-11-17T19:52:16.388Z,7.47
2022-11-17T19:54:46.621Z,9.82
2022-11-17T19:57:16.854Z,14.43
2022-11-17T19:59:47.148Z,21.00
2022-11-17T20:02:17.342Z,26.33
2022-11-17T20:04:47.435Z,15.95
2022-11-17T20:07:17.578Z,12.93
2022-11-17T20:09:47.780Z,10.00
2022-11-17T20:12:17.887Z,8.95
2022-11-17T20:14:48.099Z,11.75
2022-11-17T20:17:18.203Z,13.73
2022-11-17T20:19:48.366Z,10.25
2022-11-17T20:22:18.511Z,11.27
2022-11-17T20:24:48.671Z,7.75
2022-11-17T20:27:19.244Z,25.50
2022-11-17T20:29:49.398Z,13.80
2022-11-17T20:32:19.678Z,20.52
2022-11-17T20:34:49.747Z,18.33
2022-11-17T20:37:19.962Z,17.52
2022-11-17T20:39:50.364Z,13.70
2022-11-17T20:42:20.547Z,11.85
2022-11-17T20:44:50.623Z,10.45
2022-11-17T20:47:20.803Z,9.98
2022-11-17T20:49:50.994Z,7.22
2022-11-17T20:52:21.111Z,6.20
2022-11-17T20:54:51.349Z,7.15
2022-11-17T20:57:21.490Z,8.00
2022-11-17T20:59:51.634Z,10.57
2022-11-17T21:02:21.788Z,10.40
2022-11-17T21:04:52.202Z,10.70
2022-11-17T21:07:22.414Z,9.90
2022-11-17T21:09:52.573Z,9.10
2022-11-17T21:12:22.666Z,10.75
2022-11-17T21:14:52.841Z,12.63
2022-11-17T21:17:41.600Z,8.98
2022-11-17T21:20:11.894Z,7.07
2022-11-17T21:22:42.025Z,10.95
2022-11-17T21:25:12.124Z,6.72
2022-11-17T21:27:42.333Z,7.25
2022-11-17T21:30:13.075Z,7.07
2022-11-17T21:32:43.244Z,10.38
2022-11-17T21:35:13.301Z,6.18
2022-11-17T21:37:43.481Z,5.65
2022-11-17T21:40:13.567Z,7.80
2022-11-17T21:42:44.480Z,5.30
2022-11-17T21:45:14.688Z,5.95
2022-11-17T21:47:44.973Z,7.28
2022-11-17T21:50:15.154Z,9.40
2022-11-17T21:52:45.293Z,6.32
2022-11-17T21:55:15.589Z,4.93
2022-11-17T21:57:45.717Z,6.25
2022-11-17T22:00:16.651Z,3.90
2022-11-17T22:02:46.788Z,7.05
2022-11-17T22:05:18.176Z,4.68
2022-11-17T22:07:48.894Z,5.72
2022-11-17T22:10:19.017Z,6.07
2022-11-17T22:12:49.093Z,5.10
2022-11-17T22:15:19.250Z,6.03
2022-11-17T22:17:49.504Z,5.50
2022-11-17T22:20:19.697Z,12.95
2022-11-17T22:22:54.182Z,10.13
2022-11-17T22:25:44.279Z,37.90
2022-11-17T22:28:14.897Z,5.78
2022-11-17T22:30:45.086Z,8.73
2022-11-17T22:33:15.231Z,6.00
2022-11-17T22:35:45.702Z,6.05
2022-11-17T22:38:16.539Z,3.75
2022-11-17T22:40:46.674Z,17.55
2022-11-17T22:43:16.773Z,6.53
2022-11-17T22:45:46.842Z,5.38
2022-11-17T22:48:17.077Z,9.93
2022-11-17T22:50:47.303Z,7.18
2022-11-17T22:53:17.453Z,3.70
2022-11-17T22:55:47.553Z,3.78
2022-11-17T22:58:17.852Z,4.57
2022-11-17T23:00:48.016Z,4.00
2022-11-17T23:03:18.245Z,3.63
2022-11-17T23:05:48.539Z,4.80
2022-11-17T23:08:18.929Z,3.88
2022-11-17T23:10:49.003Z,3.20
2022-11-17T23:13:19.115Z,5.13
2022-11-17T23:15:49.314Z,6.82
2022-11-17T23:18:19.436Z,7.28
2022-11-17T23:20:49.654Z,6.20
2022-11-17T23:23:20.042Z,4.80
2022-11-17T23:25:50.166Z,6.18
2022-11-17T23:28:20.314Z,5.95
2022-11-17T23:30:50.520Z,4.78
2022-11-17T23:33:20.701Z,6.15
2022-11-17T23:35:50.725Z,8.25
2022-11-17T23:38:20.806Z,10.65
2022-11-17T23:40:51.885Z,6.05
2022-11-17T23:43:22.052Z,5.78
2022-11-17T23:45:52.225Z,4.45
2022-11-17T23:48:23.367Z,3.67
2022-11-17T23:50:53.396Z,4.38
2022-11-17T23:53:23.576Z,2.97
2022-11-17T23:55:57.307Z,8.40
2022-11-17T23:58:27.723Z,7.28
